sensor_id;sensor_type;location;lat;lon;timestamp;temperature;humidity
65239;SHT30;51827;51.186;6.926;2024-03-02T00:00:08;18.98;49.05
65239;SHT30;51827;51.186;6.926;2024-03-02T00:01:12;18.98;49.12
65239;SHT30;51827;51.186;6.926;2024-03-02T00:02:13;18.98;49.14
65239;SHT30;51827;51.186;6.926;2024-03-02T00:03:13;18.99;49.17
65239;SHT30;51827;51.186;6.926;2024-03-02T00:04:13;18.99;49.14
65239;SHT30;51827;51.186;6.926;2024-03-02T00:05:21;19.02;49.12
65239;SHT30;51827;51.186;6.926;2024-03-02T00:06:22;19.00;49.12
65239;SHT30;51827;51.186;6.926;2024-03-02T00:07:22;19.00;49.11
65239;SHT30;51827;51.186;6.926;2024-03-02T00:08:24;18.99;49.09
65239;SHT30;51827;51.186;6.926;2024-03-02T00:09:24;18.98;49.12
65239;SHT30;51827;51.186;6.926;2024-03-02T00:10:26;18.99;49.09
65239;SHT30;51827;51.186;6.926;2024-03-02T00:11:27;18.99;49.07
65239;SHT30;51827;51.186;6.926;2024-03-02T00:12:27;19.00;49.10
65239;SHT30;51827;51.186;6.926;2024-03-02T00:13:27;19.02;49.11
65239;SHT30;51827;51.186;6.926;2024-03-02T00:14:29;18.99;49.09
65239;SHT30;51827;51.186;6.926;2024-03-02T00:16:38;19.00;49.11
65239;SHT30;51827;51.186;6.926;2024-03-02T00:17:38;19.00;49.06
65239;SHT30;51827;51.186;6.926;2024-03-02T00:18:39;19.00;49.06
65239;SHT30;51827;51.186;6.926;2024-03-02T00:19:39;18.98;49.03
65239;SHT30;51827;51.186;6.926;2024-03-02T00:20:40;19.00;49.02
65239;SHT30;51827;51.186;6.926;2024-03-02T00:21:40;19.02;49.04
65239;SHT30;51827;51.186;6.926;2024-03-02T00:22:41;19.03;49.07
65239;SHT30;51827;51.186;6.926;2024-03-02T00:23:41;18.99;49.04
65239;SHT30;51827;51.186;6.926;2024-03-02T00:24:41;19.00;48.99
65239;SHT30;51827;51.186;6.926;2024-03-02T00:25:44;19.02;49.04
65239;SHT30;51827;51.186;6.926;2024-03-02T00:26:45;19.00;49.04
65239;SHT30;51827;51.186;6.926;2024-03-02T00:27:48;18.99;49.04
65239;SHT30;51827;51.186;6.926;2024-03-02T00:28:48;19.00;49.06
65239;SHT30;51827;51.186;6.926;2024-03-02T00:29:48;18.99;49.06
65239;SHT30;51827;51.186;6.926;2024-03-02T00:31:04;19.02;49.00
65239;SHT30;51827;51.186;6.926;2024-03-02T00:32:14;19.00;49.02
65239;SHT30;51827;51.186;6.926;2024-03-02T00:33:16;19.00;49.05
65239;SHT30;51827;51.186;6.926;2024-03-02T00:34:17;18.99;49.06
65239;SHT30;51827;51.186;6.926;2024-03-02T00:35:23;19.02;49.03
65239;SHT30;51827;51.186;6.926;2024-03-02T00:36:26;19.00;49.06
65239;SHT30;51827;51.186;6.926;2024-03-02T00:37:27;18.99;49.06
65239;SHT30;51827;51.186;6.926;2024-03-02T00:38:27;19.00;49.04
65239;SHT30;51827;51.186;6.926;2024-03-02T00:39:27;19.00;49.05
65239;SHT30;51827;51.186;6.926;2024-03-02T00:40:29;18.99;49.03
65239;SHT30;51827;51.186;6.926;2024-03-02T00:41:30;18.99;49.03
65239;SHT30;51827;51.186;6.926;2024-03-02T00:42:31;19.00;49.06
65239;SHT30;51827;51.186;6.926;2024-03-02T00:44:04;19.02;49.04
65239;SHT30;51827;51.186;6.926;2024-03-02T00:45:07;19.02;49.02
65239;SHT30;51827;51.186;6.926;2024-03-02T00:46:08;18.98;49.02
65239;SHT30;51827;51.186;6.926;2024-03-02T00:47:09;18.99;49.06
65239;SHT30;51827;51.186;6.926;2024-03-02T00:48:09;19.02;49.02
65239;SHT30;51827;51.186;6.926;2024-03-02T00:49:23;19.00;49.04
65239;SHT30;51827;51.186;6.926;2024-03-02T00:50:24;19.02;49.03
65239;SHT30;51827;51.186;6.926;2024-03-02T00:51:26;19.03;49.03
65239;SHT30;51827;51.186;6.926;2024-03-02T00:52:26;19.03;49.03
65239;SHT30;51827;51.186;6.926;2024-03-02T00:53:27;19.02;49.03
65239;SHT30;51827;51.186;6.926;2024-03-02T00:54:27;19.02;49.03
65239;SHT30;51827;51.186;6.926;2024-03-02T00:55:28;19.02;49.05
65239;SHT30;51827;51.186;6.926;2024-03-02T00:56:28;19.00;49.06
65239;SHT30;51827;51.186;6.926;2024-03-02T00:57:31;19.00;49.07
65239;SHT30;51827;51.186;6.926;2024-03-02T00:58:33;18.99;49.03
65239;SHT30;51827;51.186;6.926;2024-03-02T00:59:33;19.02;49.05
65239;SHT30;51827;51.186;6.926;2024-03-02T01:00:33;19.02;49.04
65239;SHT30;51827;51.186;6.926;2024-03-02T01:01:34;19.00;49.07
65239;SHT30;51827;51.186;6.926;2024-03-02T01:02:34;19.05;49.02
65239;SHT30;51827;51.186;6.926;2024-03-02T01:03:34;19.02;48.98
65239;SHT30;51827;51.186;6.926;2024-03-02T01:04:35;19.05;49.02
65239;SHT30;51827;51.186;6.926;2024-03-02T01:05:35;19.02;49.02
65239;SHT30;51827;51.186;6.926;2024-03-02T01:06:35;19.02;49.06
65239;SHT30;51827;51.186;6.926;2024-03-02T01:07:38;19.02;49.04
65239;SHT30;51827;51.186;6.926;2024-03-02T01:08:38;19.00;49.04
65239;SHT30;51827;51.186;6.926;2024-03-02T01:09:39;19.02;49.04
65239;SHT30;51827;51.186;6.926;2024-03-02T01:10:39;19.02;49.05
65239;SHT30;51827;51.186;6.926;2024-03-02T01:11:39;19.02;49.02
65239;SHT30;51827;51.186;6.926;2024-03-02T01:12:40;19.03;49.04
65239;SHT30;51827;51.186;6.926;2024-03-02T01:13:40;19.05;49.01
65239;SHT30;51827;51.186;6.926;2024-03-02T01:14:40;18.99;49.06
65239;SHT30;51827;51.186;6.926;2024-03-02T01:15:40;19.03;49.03
65239;SHT30;51827;51.186;6.926;2024-03-02T01:16:41;19.05;49.02
65239;SHT30;51827;51.186;6.926;2024-03-02T01:17:41;19.03;49.04
65239;SHT30;51827;51.186;6.926;2024-03-02T01:18:41;19.03;49.03
65239;SHT30;51827;51.186;6.926;2024-03-02T01:19:42;19.05;49.04
65239;SHT30;51827;51.186;6.926;2024-03-02T01:20:42;19.02;49.10
65239;SHT30;51827;51.186;6.926;2024-03-02T01:21:42;19.00;49.07
65239;SHT30;51827;51.186;6.926;2024-03-02T01:22:43;19.02;49.15
65239;SHT30;51827;51.186;6.926;2024-03-02T01:23:43;19.00;49.11
65239;SHT30;51827;51.186;6.926;2024-03-02T01:24:43;19.00;49.15
65239;SHT30;51827;51.186;6.926;2024-03-02T01:25:43;19.00;49.10
65239;SHT30;51827;51.186;6.926;2024-03-02T01:26:44;19.02;49.10
65239;SHT30;51827;51.186;6.926;2024-03-02T01:27:44;18.99;49.12
65239;SHT30;51827;51.186;6.926;2024-03-02T01:28:44;19.02;49.16
65239;SHT30;51827;51.186;6.926;2024-03-02T01:29:44;18.99;49.13
65239;SHT30;51827;51.186;6.926;2024-03-02T01:30:45;19.00;49.16
65239;SHT30;51827;51.186;6.926;2024-03-02T01:31:45;18.98;49.16
65239;SHT30;51827;51.186;6.926;2024-03-02T01:32:45;18.98;49.13
65239;SHT30;51827;51.186;6.926;2024-03-02T01:33:45;18.99;49.16
65239;SHT30;51827;51.186;6.926;2024-03-02T01:34:46;18.98;49.18
65239;SHT30;51827;51.186;6.926;2024-03-02T01:35:46;18.98;49.16
65239;SHT30;51827;51.186;6.926;2024-03-02T01:36:46;18.98;49.16
65239;SHT30;51827;51.186;6.926;2024-03-02T01:37:46;18.98;49.19
65239;SHT30;51827;51.186;6.926;2024-03-02T01:38:47;18.98;49.22
65239;SHT30;51827;51.186;6.926;2024-03-02T01:39:47;18.98;49.20
65239;SHT30;51827;51.186;6.926;2024-03-02T01:40:47;19.00;49.19
65239;SHT30;51827;51.186;6.926;2024-03-02T01:41:48;18.99;49.20
65239;SHT30;51827;51.186;6.926;2024-03-02T01:42:48;18.99;49.19
65239;SHT30;51827;51.186;6.926;2024-03-02T01:43:48;18.98;49.21
65239;SHT30;51827;51.186;6.926;2024-03-02T01:44:48;19.00;49.19
65239;SHT30;51827;51.186;6.926;2024-03-02T01:45:49;18.95;49.19
65239;SHT30;51827;51.186;6.926;2024-03-02T01:46:49;18.99;49.19
65239;SHT30;51827;51.186;6.926;2024-03-02T01:47:50;18.96;49.20
65239;SHT30;51827;51.186;6.926;2024-03-02T01:48:50;18.96;49.19
65239;SHT30;51827;51.186;6.926;2024-03-02T01:49:50;18.96;49.19
65239;SHT30;51827;51.186;6.926;2024-03-02T01:50:50;18.96;49.19
65239;SHT30;51827;51.186;6.926;2024-03-02T01:51:51;18.98;49.14
65239;SHT30;51827;51.186;6.926;2024-03-02T01:52:51;18.98;49.19
65239;SHT30;51827;51.186;6.926;2024-03-02T01:53:51;18.98;49.13
65239;SHT30;51827;51.186;6.926;2024-03-02T01:54:52;18.98;49.23
65239;SHT30;51827;51.186;6.926;2024-03-02T01:55:52;18.98;49.18
65239;SHT30;51827;51.186;6.926;2024-03-02T01:56:52;18.98;49.20
65239;SHT30;51827;51.186;6.926;2024-03-02T01:57:53;18.98;49.18
65239;SHT30;51827;51.186;6.926;2024-03-02T01:58:53;18.95;49.20
65239;SHT30;51827;51.186;6.926;2024-03-02T01:59:53;18.94;49.24
65239;SHT30;51827;51.186;6.926;2024-03-02T02:00:54;18.98;49.20
65239;SHT30;51827;51.186;6.926;2024-03-02T02:01:54;18.96;49.18
65239;SHT30;51827;51.186;6.926;2024-03-02T02:02:54;18.94;49.20
65239;SHT30;51827;51.186;6.926;2024-03-02T02:03:55;18.95;49.20
65239;SHT30;51827;51.186;6.926;2024-03-02T02:04:55;18.96;49.19
65239;SHT30;51827;51.186;6.926;2024-03-02T02:05:55;18.95;49.20
65239;SHT30;51827;51.186;6.926;2024-03-02T02:06:56;18.96;49.19
65239;SHT30;51827;51.186;6.926;2024-03-02T02:07:57;18.94;49.20
65239;SHT30;51827;51.186;6.926;2024-03-02T02:08:57;18.96;49.22
65239;SHT30;51827;51.186;6.926;2024-03-02T02:09:57;18.95;49.24
65239;SHT30;51827;51.186;6.926;2024-03-02T02:10:57;18.95;49.22
65239;SHT30;51827;51.186;6.926;2024-03-02T02:11:58;18.95;49.20
65239;SHT30;51827;51.186;6.926;2024-03-02T02:12:59;18.92;49.23
65239;SHT30;51827;51.186;6.926;2024-03-02T02:13:59;18.95;49.20
65239;SHT30;51827;51.186;6.926;2024-03-02T02:15:00;18.92;49.22
65239;SHT30;51827;51.186;6.926;2024-03-02T02:16:09;18.94;49.21
65239;SHT30;51827;51.186;6.926;2024-03-02T02:17:09;18.95;49.19
65239;SHT30;51827;51.186;6.926;2024-03-02T02:18:09;18.94;49.24
65239;SHT30;51827;51.186;6.926;2024-03-02T02:19:10;18.94;49.20
65239;SHT30;51827;51.186;6.926;2024-03-02T02:20:10;18.96;49.20
65239;SHT30;51827;51.186;6.926;2024-03-02T02:21:11;18.92;49.21
65239;SHT30;51827;51.186;6.926;2024-03-02T02:22:11;18.91;49.20
65239;SHT30;51827;51.186;6.926;2024-03-02T02:23:11;18.94;49.21
65239;SHT30;51827;51.186;6.926;2024-03-02T02:24:12;18.95;49.22
65239;SHT30;51827;51.186;6.926;2024-03-02T02:25:12;18.94;49.20
65239;SHT30;51827;51.186;6.926;2024-03-02T02:26:12;18.94;49.25
65239;SHT30;51827;51.186;6.926;2024-03-02T02:27:13;18.94;49.20
65239;SHT30;51827;51.186;6.926;2024-03-02T02:28:13;18.92;49.22
65239;SHT30;51827;51.186;6.926;2024-03-02T02:29:13;18.94;49.19
65239;SHT30;51827;51.186;6.926;2024-03-02T02:30:13;18.92;49.16
65239;SHT30;51827;51.186;6.926;2024-03-02T02:31:18;18.94;49.21
65239;SHT30;51827;51.186;6.926;2024-03-02T02:32:18;18.96;49.22
65239;SHT30;51827;51.186;6.926;2024-03-02T02:33:18;18.96;49.21
65239;SHT30;51827;51.186;6.926;2024-03-02T02:34:18;18.92;49.20
65239;SHT30;51827;51.186;6.926;2024-03-02T02:35:19;18.95;49.22
65239;SHT30;51827;51.186;6.926;2024-03-02T02:36:19;18.95;49.21
65239;SHT30;51827;51.186;6.926;2024-03-02T02:37:19;18.94;49.19
65239;SHT30;51827;51.186;6.926;2024-03-02T02:38:20;18.94;49.24
65239;SHT30;51827;51.186;6.926;2024-03-02T02:39:21;18.94;49.20
65239;SHT30;51827;51.186;6.926;2024-03-02T02:40:22;18.95;49.22
65239;SHT30;51827;51.186;6.926;2024-03-02T02:41:22;18.95;49.20
65239;SHT30;51827;51.186;6.926;2024-03-02T02:42:23;18.92;49.19
65239;SHT30;51827;51.186;6.926;2024-03-02T02:43:23;18.95;49.24
65239;SHT30;51827;51.186;6.926;2024-03-02T02:44:23;18.95;49.19
65239;SHT30;51827;51.186;6.926;2024-03-02T02:45:23;18.92;49.24
65239;SHT30;51827;51.186;6.926;2024-03-02T02:46:23;18.96;49.24
65239;SHT30;51827;51.186;6.926;2024-03-02T02:47:25;18.94;49.21
65239;SHT30;51827;51.186;6.926;2024-03-02T02:48:25;18.94;49.20
65239;SHT30;51827;51.186;6.926;2024-03-02T02:49:26;18.94;49.22
65239;SHT30;51827;51.186;6.926;2024-03-02T02:50:26;18.96;49.21
65239;SHT30;51827;51.186;6.926;2024-03-02T02:51:26;18.95;49.20
65239;SHT30;51827;51.186;6.926;2024-03-02T02:52:31;18.94;49.19
65239;SHT30;51827;51.186;6.926;2024-03-02T02:53:31;18.94;49.20
65239;SHT30;51827;51.186;6.926;2024-03-02T02:54:31;18.91;49.26
65239;SHT30;51827;51.186;6.926;2024-03-02T02:55:32;18.89;49.24
65239;SHT30;51827;51.186;6.926;2024-03-02T02:56:32;18.92;49.23
65239;SHT30;51827;51.186;6.926;2024-03-02T02:57:34;18.94;49.24
65239;SHT30;51827;51.186;6.926;2024-03-02T02:58:34;18.92;49.24
65239;SHT30;51827;51.186;6.926;2024-03-02T02:59:35;18.95;49.24
65239;SHT30;51827;51.186;6.926;2024-03-02T03:00:36;18.94;49.28
65239;SHT30;51827;51.186;6.926;2024-03-02T03:01:36;18.92;49.20
65239;SHT30;51827;51.186;6.926;2024-03-02T03:02:37;18.91;49.24
65239;SHT30;51827;51.186;6.926;2024-03-02T03:03:38;18.94;49.26
65239;SHT30;51827;51.186;6.926;2024-03-02T03:04:39;18.91;49.24
65239;SHT30;51827;51.186;6.926;2024-03-02T03:05:40;18.91;49.27
65239;SHT30;51827;51.186;6.926;2024-03-02T03:06:40;18.94;49.21
65239;SHT30;51827;51.186;6.926;2024-03-02T03:07:41;18.91;49.22
65239;SHT30;51827;51.186;6.926;2024-03-02T03:08:42;18.94;49.23
65239;SHT30;51827;51.186;6.926;2024-03-02T03:09:42;18.91;49.28
65239;SHT30;51827;51.186;6.926;2024-03-02T03:10:42;18.91;49.26
65239;SHT30;51827;51.186;6.926;2024-03-02T03:11:43;18.94;49.26
65239;SHT30;51827;51.186;6.926;2024-03-02T03:12:43;18.94;49.24
65239;SHT30;51827;51.186;6.926;2024-03-02T03:13:43;18.91;49.26
65239;SHT30;51827;51.186;6.926;2024-03-02T03:14:43;18.91;49.25
65239;SHT30;51827;51.186;6.926;2024-03-02T03:15:44;18.89;49.24
65239;SHT30;51827;51.186;6.926;2024-03-02T03:16:46;18.92;49.24
65239;SHT30;51827;51.186;6.926;2024-03-02T03:17:46;18.91;49.29
65239;SHT30;51827;51.186;6.926;2024-03-02T03:18:46;18.91;49.28
65239;SHT30;51827;51.186;6.926;2024-03-02T03:19:46;18.94;49.29
65239;SHT30;51827;51.186;6.926;2024-03-02T03:20:47;18.92;49.29
65239;SHT30;51827;51.186;6.926;2024-03-02T03:21:47;18.94;49.23
65239;SHT30;51827;51.186;6.926;2024-03-02T03:22:47;18.94;49.26
65239;SHT30;51827;51.186;6.926;2024-03-02T03:23:47;18.92;49.24
65239;SHT30;51827;51.186;6.926;2024-03-02T03:24:48;18.91;49.26
65239;SHT30;51827;51.186;6.926;2024-03-02T03:25:48;18.91;49.28
65239;SHT30;51827;51.186;6.926;2024-03-02T03:26:48;18.91;49.32
65239;SHT30;51827;51.186;6.926;2024-03-02T03:27:48;18.92;49.27
65239;SHT30;51827;51.186;6.926;2024-03-02T03:28:49;18.91;49.29
65239;SHT30;51827;51.186;6.926;2024-03-02T03:29:49;18.89;49.29
65239;SHT30;51827;51.186;6.926;2024-03-02T03:30:49;18.91;49.29
65239;SHT30;51827;51.186;6.926;2024-03-02T03:31:49;18.89;49.31
65239;SHT30;51827;51.186;6.926;2024-03-02T03:32:50;18.91;49.30
65239;SHT30;51827;51.186;6.926;2024-03-02T03:33:50;18.91;49.25
65239;SHT30;51827;51.186;6.926;2024-03-02T03:34:50;18.92;49.28
65239;SHT30;51827;51.186;6.926;2024-03-02T03:35:50;18.91;49.28
65239;SHT30;51827;51.186;6.926;2024-03-02T03:36:50;18.92;49.27
65239;SHT30;51827;51.186;6.926;2024-03-02T03:37:51;18.92;49.31
65239;SHT30;51827;51.186;6.926;2024-03-02T03:38:51;18.89;49.32
65239;SHT30;51827;51.186;6.926;2024-03-02T03:39:51;18.91;49.29
65239;SHT30;51827;51.186;6.926;2024-03-02T03:40:51;18.92;49.29
65239;SHT30;51827;51.186;6.926;2024-03-02T03:41:52;18.91;49.30
65239;SHT30;51827;51.186;6.926;2024-03-02T03:42:52;18.91;49.29
65239;SHT30;51827;51.186;6.926;2024-03-02T03:43:52;18.92;49.33
65239;SHT30;51827;51.186;6.926;2024-03-02T03:44:52;18.91;49.33
65239;SHT30;51827;51.186;6.926;2024-03-02T03:45:53;18.91;49.36
65239;SHT30;51827;51.186;6.926;2024-03-02T03:46:53;18.88;49.34
65239;SHT30;51827;51.186;6.926;2024-03-02T03:47:53;18.92;49.29
65239;SHT30;51827;51.186;6.926;2024-03-02T03:48:54;18.89;49.29
65239;SHT30;51827;51.186;6.926;2024-03-02T03:49:54;18.92;49.27
65239;SHT30;51827;51.186;6.926;2024-03-02T03:50:54;18.88;49.34
65239;SHT30;51827;51.186;6.926;2024-03-02T03:51:54;18.89;49.32
65239;SHT30;51827;51.186;6.926;2024-03-02T03:52:55;18.89;49.33
65239;SHT30;51827;51.186;6.926;2024-03-02T03:53:55;18.92;49.28
65239;SHT30;51827;51.186;6.926;2024-03-02T03:54:55;18.88;49.33
65239;SHT30;51827;51.186;6.926;2024-03-02T03:55:55;18.91;49.30
65239;SHT30;51827;51.186;6.926;2024-03-02T03:56:56;18.89;49.33
65239;SHT30;51827;51.186;6.926;2024-03-02T03:57:56;18.89;49.32
65239;SHT30;51827;51.186;6.926;2024-03-02T03:58:56;18.91;49.30
65239;SHT30;51827;51.186;6.926;2024-03-02T03:59:56;18.89;49.30
65239;SHT30;51827;51.186;6.926;2024-03-02T04:00:57;18.89;49.34
65239;SHT30;51827;51.186;6.926;2024-03-02T04:01:57;18.91;49.34
65239;SHT30;51827;51.186;6.926;2024-03-02T04:02:57;18.88;49.37
65239;SHT30;51827;51.186;6.926;2024-03-02T04:03:57;18.89;49.34
65239;SHT30;51827;51.186;6.926;2024-03-02T04:04:58;18.91;49.35
65239;SHT30;51827;51.186;6.926;2024-03-02T04:05:58;18.88;49.31
65239;SHT30;51827;51.186;6.926;2024-03-02T04:06:58;18.88;49.34
65239;SHT30;51827;51.186;6.926;2024-03-02T04:07:58;18.86;49.38
65239;SHT30;51827;51.186;6.926;2024-03-02T04:08:58;18.88;49.32
65239;SHT30;51827;51.186;6.926;2024-03-02T04:09:59;18.88;49.34
65239;SHT30;51827;51.186;6.926;2024-03-02T04:10:59;18.86;49.34
65239;SHT30;51827;51.186;6.926;2024-03-02T04:11:59;18.88;49.33
65239;SHT30;51827;51.186;6.926;2024-03-02T04:12:59;18.88;49.34
65239;SHT30;51827;51.186;6.926;2024-03-02T04:14:00;18.88;49.33
65239;SHT30;51827;51.186;6.926;2024-03-02T04:15:00;18.89;49.29
65239;SHT30;51827;51.186;6.926;2024-03-02T04:16:00;18.88;49.33
65239;SHT30;51827;51.186;6.926;2024-03-02T04:17:01;18.92;49.30
65239;SHT30;51827;51.186;6.926;2024-03-02T04:18:01;18.86;49.31
65239;SHT30;51827;51.186;6.926;2024-03-02T04:19:01;18.89;49.30
65239;SHT30;51827;51.186;6.926;2024-03-02T04:20:01;18.89;49.34
65239;SHT30;51827;51.186;6.926;2024-03-02T04:21:02;18.86;49.34
65239;SHT30;51827;51.186;6.926;2024-03-02T04:22:02;18.86;49.36
65239;SHT30;51827;51.186;6.926;2024-03-02T04:23:03;18.88;49.29
65239;SHT30;51827;51.186;6.926;2024-03-02T04:24:03;18.89;49.33
65239;SHT30;51827;51.186;6.926;2024-03-02T04:25:04;18.91;49.34
65239;SHT30;51827;51.186;6.926;2024-03-02T04:26:04;18.89;49.31
65239;SHT30;51827;51.186;6.926;2024-03-02T04:27:04;18.89;49.33
65239;SHT30;51827;51.186;6.926;2024-03-02T04:28:04;18.88;49.29
65239;SHT30;51827;51.186;6.926;2024-03-02T04:29:05;18.88;49.34
65239;SHT30;51827;51.186;6.926;2024-03-02T04:30:05;18.88;49.28
65239;SHT30;51827;51.186;6.926;2024-03-02T04:31:06;18.89;49.34
65239;SHT30;51827;51.186;6.926;2024-03-02T04:32:06;18.91;49.34
65239;SHT30;51827;51.186;6.926;2024-03-02T04:33:07;18.88;49.27
65239;SHT30;51827;51.186;6.926;2024-03-02T04:34:07;18.89;49.31
65239;SHT30;51827;51.186;6.926;2024-03-02T04:35:07;18.91;49.29
65239;SHT30;51827;51.186;6.926;2024-03-02T04:36:07;18.91;49.31
65239;SHT30;51827;51.186;6.926;2024-03-02T04:37:08;18.89;49.30
65239;SHT30;51827;51.186;6.926;2024-03-02T04:38:09;18.88;49.31
65239;SHT30;51827;51.186;6.926;2024-03-02T04:39:09;18.91;49.34
65239;SHT30;51827;51.186;6.926;2024-03-02T04:40:10;18.88;49.29
65239;SHT30;51827;51.186;6.926;2024-03-02T04:41:10;18.91;49.34
65239;SHT30;51827;51.186;6.926;2024-03-02T04:42:10;18.85;49.34
65239;SHT30;51827;51.186;6.926;2024-03-02T04:43:10;18.88;49.36
65239;SHT30;51827;51.186;6.926;2024-03-02T04:44:11;18.88;49.33
65239;SHT30;51827;51.186;6.926;2024-03-02T04:45:11;18.86;49.33
65239;SHT30;51827;51.186;6.926;2024-03-02T04:46:11;18.86;49.36
65239;SHT30;51827;51.186;6.926;2024-03-02T04:47:11;18.86;49.35
65239;SHT30;51827;51.186;6.926;2024-03-02T04:48:12;18.91;49.31
65239;SHT30;51827;51.186;6.926;2024-03-02T04:49:12;18.86;49.35
65239;SHT30;51827;51.186;6.926;2024-03-02T04:50:12;18.88;49.34
65239;SHT30;51827;51.186;6.926;2024-03-02T04:51:12;18.89;49.34
65239;SHT30;51827;51.186;6.926;2024-03-02T04:52:13;18.88;49.35
65239;SHT30;51827;51.186;6.926;2024-03-02T04:53:13;18.91;49.35
65239;SHT30;51827;51.186;6.926;2024-03-02T04:54:13;18.88;49.36
65239;SHT30;51827;51.186;6.926;2024-03-02T04:55:13;18.88;49.34
65239;SHT30;51827;51.186;6.926;2024-03-02T04:56:14;18.86;49.35
65239;SHT30;51827;51.186;6.926;2024-03-02T04:57:14;18.85;49.33
65239;SHT30;51827;51.186;6.926;2024-03-02T04:58:14;18.88;49.34
65239;SHT30;51827;51.186;6.926;2024-03-02T04:59:16;18.85;49.32
65239;SHT30;51827;51.186;6.926;2024-03-02T05:00:16;18.85;49.33
65239;SHT30;51827;51.186;6.926;2024-03-02T05:01:17;18.86;49.35
65239;SHT30;51827;51.186;6.926;2024-03-02T05:02:17;18.86;49.34
65239;SHT30;51827;51.186;6.926;2024-03-02T05:03:17;18.89;49.35
65239;SHT30;51827;51.186;6.926;2024-03-02T05:04:17;18.88;49.35
65239;SHT30;51827;51.186;6.926;2024-03-02T05:05:18;18.85;49.38
65239;SHT30;51827;51.186;6.926;2024-03-02T05:06:18;18.88;49.36
65239;SHT30;51827;51.186;6.926;2024-03-02T05:07:18;18.88;49.36
65239;SHT30;51827;51.186;6.926;2024-03-02T05:08:18;18.88;49.34
65239;SHT30;51827;51.186;6.926;2024-03-02T05:09:19;18.91;49.34
65239;SHT30;51827;51.186;6.926;2024-03-02T05:10:19;18.91;49.31
65239;SHT30;51827;51.186;6.926;2024-03-02T05:11:19;18.88;49.34
65239;SHT30;51827;51.186;6.926;2024-03-02T05:12:19;18.89;49.31
65239;SHT30;51827;51.186;6.926;2024-03-02T05:13:20;18.86;49.35
65239;SHT30;51827;51.186;6.926;2024-03-02T05:14:20;18.91;49.34
65239;SHT30;51827;51.186;6.926;2024-03-02T05:15:20;18.88;49.31
65239;SHT30;51827;51.186;6.926;2024-03-02T05:16:20;18.86;49.33
65239;SHT30;51827;51.186;6.926;2024-03-02T05:17:20;18.88;49.34
65239;SHT30;51827;51.186;6.926;2024-03-02T05:18:21;18.89;49.30
65239;SHT30;51827;51.186;6.926;2024-03-02T05:19:21;18.89;49.32
65239;SHT30;51827;51.186;6.926;2024-03-02T05:20:21;18.88;49.36
65239;SHT30;51827;51.186;6.926;2024-03-02T05:21:21;18.88;49.36
65239;SHT30;51827;51.186;6.926;2024-03-02T05:22:22;18.89;49.34
65239;SHT30;51827;51.186;6.926;2024-03-02T05:23:22;18.91;49.35
65239;SHT30;51827;51.186;6.926;2024-03-02T05:24:22;18.88;49.35
65239;SHT30;51827;51.186;6.926;2024-03-02T05:25:22;18.86;49.30
65239;SHT30;51827;51.186;6.926;2024-03-02T05:26:23;18.86;49.34
65239;SHT30;51827;51.186;6.926;2024-03-02T05:27:23;18.88;49.36
65239;SHT30;51827;51.186;6.926;2024-03-02T05:28:23;18.86;49.31
65239;SHT30;51827;51.186;6.926;2024-03-02T05:29:26;18.88;49.34
65239;SHT30;51827;51.186;6.926;2024-03-02T05:30:27;18.88;49.32
65239;SHT30;51827;51.186;6.926;2024-03-02T05:31:27;18.88;49.31
65239;SHT30;51827;51.186;6.926;2024-03-02T05:32:27;18.88;49.35
65239;SHT30;51827;51.186;6.926;2024-03-02T05:33:27;18.89;49.36
65239;SHT30;51827;51.186;6.926;2024-03-02T05:34:28;18.86;49.35
65239;SHT30;51827;51.186;6.926;2024-03-02T05:35:28;18.85;49.31
65239;SHT30;51827;51.186;6.926;2024-03-02T05:36:28;18.85;49.31
65239;SHT30;51827;51.186;6.926;2024-03-02T05:37:28;18.85;49.34
65239;SHT30;51827;51.186;6.926;2024-03-02T05:38:29;18.86;49.36
65239;SHT30;51827;51.186;6.926;2024-03-02T05:39:29;18.86;49.36
65239;SHT30;51827;51.186;6.926;2024-03-02T05:40:29;18.85;49.32
65239;SHT30;51827;51.186;6.926;2024-03-02T05:41:29;18.86;49.33
65239;SHT30;51827;51.186;6.926;2024-03-02T05:42:30;18.86;49.34
65239;SHT30;51827;51.186;6.926;2024-03-02T05:43:30;18.85;49.34
65239;SHT30;51827;51.186;6.926;2024-03-02T05:44:30;18.86;49.31
65239;SHT30;51827;51.186;6.926;2024-03-02T05:45:30;18.86;49.38
65239;SHT30;51827;51.186;6.926;2024-03-02T05:46:31;18.86;49.32
65239;SHT30;51827;51.186;6.926;2024-03-02T05:47:31;18.88;49.34
65239;SHT30;51827;51.186;6.926;2024-03-02T05:48:32;18.86;49.38
65239;SHT30;51827;51.186;6.926;2024-03-02T05:49:32;18.85;49.34
65239;SHT30;51827;51.186;6.926;2024-03-02T05:50:33;18.88;49.35
65239;SHT30;51827;51.186;6.926;2024-03-02T05:51:33;18.86;49.33
65239;SHT30;51827;51.186;6.926;2024-03-02T05:52:33;18.88;49.36
65239;SHT30;51827;51.186;6.926;2024-03-02T05:53:34;18.86;49.33
65239;SHT30;51827;51.186;6.926;2024-03-02T05:54:34;18.85;49.36
65239;SHT30;51827;51.186;6.926;2024-03-02T05:55:34;18.86;49.36
65239;SHT30;51827;51.186;6.926;2024-03-02T05:56:35;18.86;49.35
65239;SHT30;51827;51.186;6.926;2024-03-02T05:57:35;18.86;49.41
65239;SHT30;51827;51.186;6.926;2024-03-02T05:58:35;18.85;49.43
65239;SHT30;51827;51.186;6.926;2024-03-02T05:59:36;18.85;49.41
65239;SHT30;51827;51.186;6.926;2024-03-02T06:00:36;18.86;49.42
65239;SHT30;51827;51.186;6.926;2024-03-02T06:01:36;18.86;49.43
65239;SHT30;51827;51.186;6.926;2024-03-02T06:02:40;18.86;49.47
65239;SHT30;51827;51.186;6.926;2024-03-02T06:03:40;18.86;49.45
65239;SHT30;51827;51.186;6.926;2024-03-02T06:04:40;18.85;49.45
65239;SHT30;51827;51.186;6.926;2024-03-02T06:05:40;18.86;49.43
65239;SHT30;51827;51.186;6.926;2024-03-02T06:06:41;18.88;49.43
65239;SHT30;51827;51.186;6.926;2024-03-02T06:07:41;18.89;49.45
65239;SHT30;51827;51.186;6.926;2024-03-02T06:08:41;18.86;49.45
65239;SHT30;51827;51.186;6.926;2024-03-02T06:09:41;18.88;49.45
65239;SHT30;51827;51.186;6.926;2024-03-02T06:10:41;18.86;49.43
65239;SHT30;51827;51.186;6.926;2024-03-02T06:11:42;18.88;49.47
65239;SHT30;51827;51.186;6.926;2024-03-02T06:12:42;18.88;49.41
65239;SHT30;51827;51.186;6.926;2024-03-02T06:13:42;18.86;49.45
65239;SHT30;51827;51.186;6.926;2024-03-02T06:14:43;18.86;49.44
65239;SHT30;51827;51.186;6.926;2024-03-02T06:15:43;18.86;49.46
65239;SHT30;51827;51.186;6.926;2024-03-02T06:16:43;18.91;49.47
65239;SHT30;51827;51.186;6.926;2024-03-02T06:17:43;18.89;49.44
65239;SHT30;51827;51.186;6.926;2024-03-02T06:18:44;18.86;49.45
65239;SHT30;51827;51.186;6.926;2024-03-02T06:19:44;18.89;49.47
65239;SHT30;51827;51.186;6.926;2024-03-02T06:20:44;18.85;49.52
65239;SHT30;51827;51.186;6.926;2024-03-02T06:21:44;18.88;49.48
65239;SHT30;51827;51.186;6.926;2024-03-02T06:22:45;18.88;49.47
65239;SHT30;51827;51.186;6.926;2024-03-02T06:23:45;18.86;49.49